Startpagina
METAR-TAF:

METAR-TAF

Vliegvelden :

Aeropuerto Internacional de Maiquetía Simón Bolívar

Caracas, Venezuela

breedte: 10-36N, lengte: 066-59W, hoogte: 43 m

Actueel weer

Dit bericht is 47 minuten geleden gemaakt, om 00:00 UTC
Weinig wind
Temperatuur 26°C
Vochtigheid 84%
Druk 1011 hPa
Zicht 10 km of meer
Weinig wolken op 1600 ft

METAR: SVMI 170000Z 00000KT 9999 FEW016 26/23 Q1011

Tijdstip: 20:47 (00:47 UTC)

Verwachting

Dit bericht is 2 uur en het 47 minuten geleden gemaakt, om 22:00 UTC
Verwachting geldig van 17 om 00 UTC tot 18 om 00 UTC
Wind 3 kt uit het oosten
Zicht 10 km of meer
Verspreide wolken op 1600 ft
Tijdelijke
van 17 om 00 UTC tot 17 om 04 UTC
Wind kt uit het noorden
Zicht: 9000 m
Gebroken wolken op 1600 ft
in de omgeving, motregen

TAF: SVMI 162200Z 1700/1800 09003KT 9999 SCT016 TX33/18Z TN24/08Z TEMPO 1700/1704 00000KT 9000 VCDZ BKN016

Waarnemingen en weersverwachtingen van meer dan 4000 vliegvelden (METAR en TAF).

De beschikbare stations zijn de gele en rode punten op de kaart.

Ga met uw muis naar het station om de naam te zien.

Klik dan om waarnemingen en weersverwachtingen te zien.

kaart wijzigen: klik op de groene knoppen met een zwart kruis om in te zoomen, op de groene knop met een streepje om uit te zoomen of op de groene pijlen voor aangrenzende kaarten.


METAR-TAF: